Time;durP1;ratioP1;P1;durP2;ratioP2;P2;SDS_P1;SDS_P2;PMS_P1;PMS_P2;Temp;Humidity;BMP_temperature;BMP_pressure;BME280_temperature;BME280_humidity;BME280_pressure;Samples;Min_cycle;Max_cycle;Signal;HPM_P1;HPM_P2
2022/06/29 00:00:52;;;;;;;21.17;4.53;;;;;;;15.35;100.00;100457.22;5114661;28;20054;-87
2022/06/29 00:03:19;;;;;;;22.73;4.85;;;;;;;15.05;100.00;100438.00;5106013;28;20124;-88
2022/06/29 00:05:46;;;;;;;26.00;5.10;;;;;;;15.24;100.00;100438.56;5094470;28;20482;-88
2022/06/29 00:08:14;;;;;;;19.65;4.38;;;;;;;15.16;100.00;100465.41;5086689;28;20048;-88
2022/06/29 00:10:41;;;;;;;14.35;3.30;;;;;;;15.25;100.00;100463.16;5078648;28;20044;-87
2022/06/29 00:13:08;;;;;;;18.38;3.88;;;;;;;15.45;100.00;100472.47;5095519;28;20047;-88
2022/06/29 00:15:35;;;;;;;18.13;4.15;;;;;;;15.33;100.00;100453.84;5114677;28;20127;-88
2022/06/29 00:18:02;;;;;;;16.52;4.13;;;;;;;15.27;100.00;100453.38;5107637;28;20052;-88
2022/06/29 00:20:29;;;;;;;19.40;3.67;;;;;;;15.23;100.00;100463.25;5089371;28;20615;-88
2022/06/29 00:22:56;;;;;;;20.23;3.92;;;;;;;15.26;100.00;100464.84;5095171;28;20047;-88
2022/06/29 00:25:23;;;;;;;14.18;2.95;;;;;;;15.48;100.00;100467.03;5085096;28;20047;-88
2022/06/29 00:27:50;;;;;;;19.60;2.92;;;;;;;15.47;100.00;100462.66;5090203;28;20051;-88
2022/06/29 00:30:17;;;;;;;13.05;3.03;;;;;;;15.71;100.00;100445.28;5085727;28;20049;-88
2022/06/29 00:32:44;;;;;;;15.48;3.40;;;;;;;15.63;100.00;100437.00;5094359;28;20054;-87
2022/06/29 00:35:10;;;;;;;16.30;4.35;;;;;;;15.53;100.00;100436.75;5087709;28;20215;-88
2022/06/29 00:37:37;;;;;;;16.60;3.15;;;;;;;15.88;100.00;100453.94;5090480;28;20047;-88
2022/06/29 00:40:05;;;;;;;15.32;3.13;;;;;;;15.56;100.00;100454.16;5082328;28;20054;-88
2022/06/29 00:42:32;;;;;;;14.20;3.45;;;;;;;15.39;100.00;100473.72;5094701;28;20051;-88
2022/06/29 00:45:00;;;;;;;12.50;3.65;;;;;;;15.36;100.00;100468.63;5095731;28;20783;-88
2022/06/29 00:47:27;;;;;;;12.27;3.20;;;;;;;15.51;100.00;100428.09;5096195;28;20504;-88
2022/06/29 00:49:54;;;;;;;12.82;3.15;;;;;;;15.62;100.00;100456.44;5095917;28;20097;-88
2022/06/29 00:52:26;;;;;;;14.88;3.38;;;;;;;15.75;100.00;100472.38;5112866;28;20047;-88
2022/06/29 00:55:03;;;;;;;20.65;3.72;;;;;;;15.66;100.00;100468.50;5099382;28;20062;-88
2022/06/29 00:57:30;;;;;;;8.82;2.55;;;;;;;15.83;100.00;100478.03;5113482;28;20050;-88
2022/06/29 00:59:59;;;;;;;12.90;3.03;;;;;;;15.67;100.00;100479.88;5113415;28;20082;-88
2022/06/29 01:02:29;;;;;;;11.30;2.92;;;;;;;15.82;100.00;100467.56;5094189;28;20044;-88
2022/06/29 01:04:56;;;;;;;16.20;3.63;;;;;;;15.16;100.00;100438.22;5091495;28;20051;-88
2022/06/29 01:07:25;;;;;;;16.90;3.35;;;;;;;15.33;100.00;100431.88;5110900;28;20130;-87
2022/06/29 01:09:52;;;;;;;16.75;3.78;;;;;;;15.54;100.00;100469.25;5113548;28;20050;-87
2022/06/29 01:12:19;;;;;;;12.10;3.08;;;;;;;15.51;100.00;100457.13;5111711;28;20062;-88
2022/06/29 01:14:48;;;;;;;13.07;2.50;;;;;;;15.55;100.00;100463.88;5104858;28;20048;-88
2022/06/29 01:17:15;;;;;;;21.15;3.95;;;;;;;15.43;100.00;100466.44;5110306;27;20043;-87
2022/06/29 01:19:43;;;;;;;16.17;3.65;;;;;;;15.32;100.00;100451.28;5094630;28;20077;-87
2022/06/29 01:22:17;;;;;;;15.90;3.03;;;;;;;15.35;100.00;100459.88;5094233;28;20085;-88
2022/06/29 01:24:46;;;;;;;9.80;2.50;;;;;;;15.28;100.00;100450.63;5074849;28;20032;-88
2022/06/29 01:27:14;;;;;;;12.02;2.80;;;;;;;15.35;100.00;100454.59;5105590;28;20047;-87
2022/06/29 01:29:42;;;;;;;14.80;3.58;;;;;;;15.52;100.00;100452.69;5095342;28;20040;-88
2022/06/29 01:32:09;;;;;;;12.70;2.83;;;;;;;15.29;100.00;100401.38;5093872;28;20138;-88
2022/06/29 01:34:37;;;;;;;14.52;2.88;;;;;;;15.71;100.00;100457.66;5090332;28;20131;-87
2022/06/29 01:37:05;;;;;;;11.20;2.40;;;;;;;15.72;100.00;100451.41;5102587;28;20044;-88
2022/06/29 01:39:33;;;;;;;17.30;2.42;;;;;;;15.52;100.00;100469.34;5095057;28;20386;-88
2022/06/29 01:42:00;;;;;;;12.52;2.75;;;;;;;15.32;100.00;100443.38;5093524;28;20050;-88
2022/06/29 01:44:27;;;;;;;19.35;3.58;;;;;;;15.16;100.00;100446.97;5093610;28;20051;-88
2022/06/29 01:46:54;;;;;;;14.18;2.88;;;;;;;15.11;100.00;100448.19;5081070;28;20112;-88
2022/06/29 01:49:22;;;;;;;16.58;3.00;;;;;;;15.26;100.00;100449.84;5094570;28;20131;-88
2022/06/29 01:51:49;;;;;;;12.18;3.10;;;;;;;15.21;100.00;100451.09;5082748;28;20054;-88
2022/06/29 01:54:16;;;;;;;10.93;2.42;;;;;;;15.25;100.00;100453.47;5094015;28;20047;-88
2022/06/29 01:56:43;;;;;;;16.98;3.55;;;;;;;15.17;100.00;100453.06;5080259;28;20130;-88
2022/06/29 01:59:10;;;;;;;12.18;3.35;;;;;;;15.12;100.00;100457.78;5093309;28;20048;-88
2022/06/29 02:01:37;;;;;;;15.25;3.15;;;;;;;14.95;100.00;100453.53;5089220;28;20043;-87
2022/06/29 02:04:04;;;;;;;16.38;2.90;;;;;;;15.01;100.00;100450.53;5091927;28;20048;-88
2022/06/29 02:06:31;;;;;;;14.85;3.28;;;;;;;15.07;100.00;100439.63;5082647;28;20055;-88
2022/06/29 02:08:58;;;;;;;22.75;4.82;;;;;;;14.90;100.00;100466.97;5111405;28;20504;-87
2022/06/29 02:11:25;;;;;;;17.73;3.60;;;;;;;15.03;100.00;100464.44;5107776;28;20055;-87
2022/06/29 02:13:52;;;;;;;20.55;3.95;;;;;;;14.84;100.00;100454.19;5074445;28;20128;-88
2022/06/29 02:16:19;;;;;;;15.65;3.25;;;;;;;15.10;100.00;100452.63;5090520;28;20044;-88
2022/06/29 02:18:46;;;;;;;15.40;3.42;;;;;;;15.32;100.00;100422.28;5111808;28;20139;-87
2022/06/29 02:21:13;;;;;;;12.98;2.95;;;;;;;15.57;100.00;100450.59;5111017;28;20047;-87
2022/06/29 02:23:40;;;;;;;18.92;4.60;;;;;;;15.10;100.00;100452.63;5111864;28;20075;-88
2022/06/29 02:26:07;;;;;;;13.50;3.75;;;;;;;15.01;100.00;100450.53;5082532;28;20077;-88
2022/06/29 02:28:34;;;;;;;18.70;4.20;;;;;;;14.94;100.00;100444.78;5090831;28;20127;-88
2022/06/29 02:36:32;;;;;;;17.15;3.20;;;;;;;15.02;100.00;100431.13;5099056;28;20044;-88
2022/06/29 02:38:59;;;;;;;12.32;2.78;;;;;;;14.99;100.00;100453.25;5098365;28;20646;-88
2022/06/29 02:41:26;;;;;;;18.05;3.70;;;;;;;15.12;100.00;100465.69;5097020;28;20054;-88
2022/06/29 02:43:53;;;;;;;21.13;4.70;;;;;;;14.87;100.00;100447.88;5094019;28;20044;-88
2022/06/29 02:46:20;;;;;;;23.67;4.30;;;;;;;14.78;100.00;100459.81;5087867;28;20043;-87
2022/06/29 02:48:47;;;;;;;20.65;3.63;;;;;;;14.54;100.00;100409.41;5116419;28;20485;-88
2022/06/29 02:51:14;;;;;;;20.77;4.18;;;;;;;14.66;100.00;100436.81;5097135;28;20043;-88
2022/06/29 02:53:40;;;;;;;14.32;3.63;;;;;;;14.67;100.00;100449.06;5097900;28;20094;-88
2022/06/29 02:56:07;;;;;;;13.77;3.33;;;;;;;14.88;100.00;100455.69;5078051;28;20044;-88
2022/06/29 02:58:34;;;;;;;15.10;2.97;;;;;;;14.72;100.00;100431.19;5090273;28;20044;-88
2022/06/29 03:01:01;;;;;;;17.23;3.38;;;;;;;14.68;100.00;100430.53;5105944;28;20131;-87
2022/06/29 03:03:28;;;;;;;13.55;2.90;;;;;;;15.04;100.00;100431.88;5097859;28;20086;-88
2022/06/29 03:05:55;;;;;;;20.75;3.30;;;;;;;14.51;100.00;100434.13;5112691;28;20039;-87
2022/06/29 03:08:22;;;;;;;12.90;3.28;;;;;;;14.46;100.00;100445.88;5116458;28;20049;-88
2022/06/29 03:10:49;;;;;;;14.35;2.92;;;;;;;14.67;100.00;100449.91;5097269;28;20048;-88
2022/06/29 03:13:16;;;;;;;15.45;3.33;;;;;;;14.53;100.00;100439.31;5115439;28;20389;-88
2022/06/29 03:15:43;;;;;;;20.33;3.78;;;;;;;14.34;100.00;100461.47;5115768;28;20497;-88
2022/06/29 03:18:10;;;;;;;16.55;3.22;;;;;;;14.44;100.00;100453.88;5097487;28;20047;-88
2022/06/29 03:20:37;;;;;;;13.02;2.90;;;;;;;14.32;100.00;100415.06;5086955;28;20059;-87
2022/06/29 03:23:04;;;;;;;12.35;3.60;;;;;;;14.48;100.00;100431.66;5099060;28;20044;-88
2022/06/29 03:25:30;;;;;;;13.63;3.25;;;;;;;14.49;100.00;100446.53;5097208;28;20119;-87
2022/06/29 03:27:57;;;;;;;11.38;3.05;;;;;;;14.58;100.00;100435.50;5097149;28;20073;-88
2022/06/29 03:30:24;;;;;;;12.35;2.70;;;;;;;14.57;100.00;100446.97;5114845;28;20066;-88
2022/06/29 03:32:50;;;;;;;17.40;3.08;;;;;;;14.52;100.00;100437.59;5095675;28;20047;-88
2022/06/29 03:35:17;;;;;;;15.23;3.25;;;;;;;14.05;100.00;100407.84;5077371;28;20060;-87
2022/06/29 03:37:44;;;;;;;13.55;3.17;;;;;;;14.22;100.00;100423.50;5089603;28;20054;-88
2022/06/29 03:40:11;;;;;;;11.90;2.83;;;;;;;14.38;100.00;100430.53;5097547;28;20055;-87
2022/06/29 03:42:38;;;;;;;10.43;2.92;;;;;;;14.42;100.00;100438.16;5103251;28;20498;-87
2022/06/29 03:45:05;;;;;;;11.40;2.67;;;;;;;14.62;100.00;100444.06;5112056;28;20054;-88
2022/06/29 03:47:32;;;;;;;14.43;3.67;;;;;;;14.60;100.00;100451.22;5106100;28;20131;-88
2022/06/29 03:49:59;;;;;;;12.15;2.60;;;;;;;14.67;100.00;100441.16;5109629;28;20048;-87
2022/06/29 03:52:25;;;;;;;15.27;3.05;;;;;;;14.51;100.00;100430.66;5095598;28;20478;-88
2022/06/29 03:54:52;;;;;;;15.55;3.47;;;;;;;14.26;100.00;100397.00;5097582;28;20439;-88
2022/06/29 03:57:19;;;;;;;13.88;2.88;;;;;;;14.60;100.00;100436.25;5097057;28;20054;-88
2022/06/29 03:59:46;;;;;;;19.17;3.50;;;;;;;14.40;100.00;100447.94;5097594;28;20070;-88
2022/06/29 04:02:12;;;;;;;17.08;3.03;;;;;;;14.59;100.00;100420.56;5088751;28;20050;-87
2022/06/29 04:04:39;;;;;;;15.30;3.33;;;;;;;14.39;100.00;100438.31;5097190;28;20441;-88
2022/06/29 04:07:06;;;;;;;20.77;4.22;;;;;;;14.41;100.00;100451.41;5096596;28;20050;-86
2022/06/29 04:09:33;;;;;;;13.15;2.97;;;;;;;14.34;100.00;100436.91;5087983;28;20040;-88
2022/06/29 04:12:00;;;;;;;16.63;3.30;;;;;;;14.44;100.00;100436.25;5084782;28;20043;-88
2022/06/29 04:14:28;;;;;;;13.40;2.72;;;;;;;14.41;100.00;100431.19;5096372;28;20122;-88
2022/06/29 04:16:57;;;;;;;12.90;3.47;;;;;;;14.51;100.00;100435.91;5114184;28;20122;-88
2022/06/29 04:19:25;;;;;;;21.00;4.97;;;;;;;14.27;100.00;100433.78;5096568;28;20134;-88
2022/06/29 04:21:53;;;;;;;24.67;5.30;;;;;;;14.26;100.00;100424.19;5095316;28;20050;-88
2022/06/29 04:24:21;;;;;;;18.45;3.25;;;;;;;14.48;100.00;100415.03;5096580;28;20052;-88
2022/06/29 04:26:48;;;;;;;19.58;4.22;;;;;;;14.43;100.00;100426.69;5096716;28;20035;-88
2022/06/29 04:29:15;;;;;;;17.38;4.18;;;;;;;14.12;100.00;100395.19;5096423;28;20047;-88
2022/06/29 04:31:42;;;;;;;14.60;4.07;;;;;;;14.25;100.00;100401.41;5101650;28;20401;-88
2022/06/29 04:34:08;;;;;;;19.88;4.40;;;;;;;14.00;100.00;100392.28;5114595;28;20047;-88
2022/06/29 04:36:35;;;;;;;20.75;5.57;;;;;;;13.96;100.00;100411.84;5093537;28;20044;-88
2022/06/29 04:39:03;;;;;;;17.95;4.15;;;;;;;14.16;100.00;100434.38;5084415;28;20043;-88
2022/06/29 04:41:30;;;;;;;15.23;3.28;;;;;;;14.21;100.00;100415.69;5112314;28;20298;-88
2022/06/29 04:43:56;;;;;;;15.00;3.28;;;;;;;14.13;100.00;100408.25;5096181;28;20057;-87
2022/06/29 04:46:23;;;;;;;12.55;3.03;;;;;;;14.37;100.00;100423.56;5096064;28;20473;-87
2022/06/29 04:48:56;;;;;;;20.00;4.63;;;;;;;14.14;100.00;100411.72;5081795;28;20052;-87
2022/06/29 04:51:25;;;;;;;11.82;2.72;;;;;;;14.31;100.00;100402.84;5094534;28;20491;-88
2022/06/29 04:53:56;;;;;;;18.55;3.40;;;;;;;14.27;100.00;100409.22;5076456;28;20051;-87
2022/06/29 04:56:25;;;;;;;10.85;3.00;;;;;;;14.36;100.00;100416.56;5075325;28;20070;-87
2022/06/29 04:58:53;;;;;;;13.77;3.20;;;;;;;14.37;100.00;100411.22;5088932;28;20055;-87
2022/06/29 05:01:25;;;;;;;13.80;2.72;;;;;;;14.44;100.00;100412.56;5083440;28;20062;-87
2022/06/29 05:03:53;;;;;;;13.57;2.97;;;;;;;14.46;100.00;100432.72;5095420;28;20160;-87
2022/06/29 05:06:21;;;;;;;11.95;2.70;;;;;;;14.29;100.00;100420.50;5103576;28;20539;-86
2022/06/29 05:08:49;;;;;;;12.77;2.83;;;;;;;14.13;100.00;100424.06;5078842;28;20048;-86
2022/06/29 05:11:17;;;;;;;13.85;3.70;;;;;;;14.07;100.00;100415.66;5092604;28;20501;-85
2022/06/29 05:13:45;;;;;;;13.77;3.13;;;;;;;13.90;100.00;100420.09;5095098;28;20138;-86
2022/06/29 05:16:12;;;;;;;11.82;2.92;;;;;;;13.90;100.00;100441.16;5092226;28;20064;-86
2022/06/29 05:18:40;;;;;;;13.05;2.75;;;;;;;14.04;100.00;100442.97;5084025;28;20050;-86
2022/06/29 05:21:09;;;;;;;10.57;3.05;;;;;;;13.96;100.00;100427.63;5111611;28;20047;-85
2022/06/29 05:23:36;;;;;;;10.68;3.28;;;;;;;13.82;100.00;100423.13;5112884;28;20047;-86
2022/06/29 05:26:03;;;;;;;13.13;3.75;;;;;;;14.00;100.00;100423.03;5080469;28;20044;-86
2022/06/29 05:28:30;;;;;;;11.60;3.38;;;;;;;14.03;100.00;100425.50;5083864;28;20050;-86
2022/06/29 05:30:56;;;;;;;12.95;2.97;;;;;;;13.83;100.00;100402.97;5111423;28;20047;-85
2022/06/29 05:33:23;;;;;;;13.38;3.15;;;;;;;14.15;100.00;100432.69;5094891;28;20047;-86
2022/06/29 05:35:50;;;;;;;16.23;2.83;;;;;;;14.03;100.00;100446.56;5094527;28;20051;-85
2022/06/29 05:38:17;;;;;;;7.35;2.17;;;;;;;13.97;100.00;100415.31;5112738;28;20059;-86
2022/06/29 05:40:44;;;;;;;8.93;2.35;;;;;;;14.22;100.00;100436.69;5094991;28;20050;-85
2022/06/29 05:43:11;;;;;;;8.73;2.42;;;;;;;13.99;100.00;100437.16;5079269;28;20048;-85
2022/06/29 05:45:38;;;;;;;9.85;2.30;;;;;;;14.15;100.00;100422.16;5094922;28;20059;-85
2022/06/29 05:48:05;;;;;;;8.77;2.33;;;;;;;14.03;100.00;100421.06;5113167;28;20180;-85
2022/06/29 05:50:32;;;;;;;10.60;2.15;;;;;;;14.00;100.00;100423.03;5094259;28;20052;-84
2022/06/29 05:52:59;;;;;;;6.93;1.95;;;;;;;14.15;100.00;100416.91;5093351;28;20043;-85
2022/06/29 05:55:26;;;;;;;9.10;2.40;;;;;;;14.11;100.00;100420.66;5095030;28;20049;-85
2022/06/29 05:57:52;;;;;;;9.38;2.83;;;;;;;14.24;100.00;100420.78;5094137;28;20043;-85
2022/06/29 06:00:19;;;;;;;8.63;2.15;;;;;;;14.21;100.00;100429.69;5091813;28;20043;-85
2022/06/29 06:02:51;;;;;;;10.18;2.97;;;;;;;14.07;100.00;100426.19;5092672;28;20138;-85
2022/06/29 06:05:18;;;;;;;15.75;3.10;;;;;;;14.18;100.00;100435.16;5116359;28;20468;-85
2022/06/29 06:07:45;;;;;;;10.40;3.05;;;;;;;14.28;100.00;100432.84;5078377;28;20044;-85
2022/06/29 06:10:12;;;;;;;12.27;2.55;;;;;;;14.27;100.00;100419.75;5092450;28;20040;-85
2022/06/29 06:12:38;;;;;;;11.30;2.63;;;;;;;14.42;100.00;100445.22;5096327;28;20044;-85
2022/06/29 06:15:07;;;;;;;12.07;2.95;;;;;;;14.47;100.00;100444.94;5098193;28;20058;-86
2022/06/29 06:17:34;;;;;;;13.88;3.83;;;;;;;14.40;100.00;100449.72;5097895;28;20502;-85
2022/06/29 06:20:03;;;;;;;13.32;3.25;;;;;;;14.31;100.00;100453.72;5084312;28;20396;-85
2022/06/29 06:22:30;;;;;;;13.20;2.92;;;;;;;14.25;100.00;100440.91;5096645;28;20101;-85
2022/06/29 06:24:58;;;;;;;12.68;3.10;;;;;;;14.13;100.00;100410.88;5098661;28;20055;-84
2022/06/29 06:27:25;;;;;;;18.92;3.45;;;;;;;14.18;100.00;100426.41;5104803;28;20070;-83
2022/06/29 06:29:51;;;;;;;14.23;2.83;;;;;;;14.22;100.00;100457.75;5090964;28;20054;-82
2022/06/29 06:32:18;;;;;;;10.38;3.15;;;;;;;14.14;100.00;100441.53;5088199;28;20051;-83
2022/06/29 06:34:45;;;;;;;9.25;2.35;;;;;;;14.34;100.00;100457.97;5096557;28;20393;-82
2022/06/29 06:37:12;;;;;;;12.25;2.50;;;;;;;14.29;100.00;100452.97;5085700;28;20040;-82
2022/06/29 06:39:38;;;;;;;10.93;2.90;;;;;;;14.42;100.00;100456.59;5083522;28;20054;-82
2022/06/29 06:42:05;;;;;;;10.35;2.38;;;;;;;14.46;100.00;100446.72;5104631;28;20048;-82
2022/06/29 06:44:32;;;;;;;14.07;3.33;;;;;;;14.24;100.00;100440.06;5115495;28;20048;-83
2022/06/29 06:47:00;;;;;;;11.20;2.67;;;;;;;14.28;100.00;100458.31;5115937;28;20100;-82
2022/06/29 06:49:28;;;;;;;9.57;3.00;;;;;;;14.10;100.00;100432.13;5098108;28;20051;-83
2022/06/29 06:51:54;;;;;;;8.82;2.13;;;;;;;14.25;100.00;100459.34;5114163;28;20047;-83
2022/06/29 06:54:21;;;;;;;14.82;3.55;;;;;;;14.07;100.00;100431.44;5088228;28;20102;-83
2022/06/29 06:56:48;;;;;;;11.38;2.80;;;;;;;14.19;100.00;100460.53;5091776;28;20749;-83
2022/06/29 06:59:15;;;;;;;9.48;2.50;;;;;;;14.19;100.00;100450.00;5097387;28;20485;-83
2022/06/29 07:01:42;;;;;;;12.10;2.80;;;;;;;14.18;100.00;100453.59;5090323;28;20056;-83
2022/06/29 07:04:15;;;;;;;;;;;;;;;14.40;100.00;100455.00;5079090;28;20044;-84
2022/06/29 07:06:42;;;;;;;7.72;2.15;;;;;;;14.41;100.00;100435.59;5090455;28;20277;-84
2022/06/29 07:09:09;;;;;;;12.60;2.88;;;;;;;14.17;100.00;100443.16;5110001;28;20039;-84
2022/06/29 07:11:36;;;;;;;9.07;2.50;;;;;;;14.26;100.00;100449.69;5096561;28;20465;-84
2022/06/29 07:14:03;;;;;;;10.75;2.28;;;;;;;14.29;100.00;100410.84;5082787;28;20052;-84
2022/06/29 07:16:30;;;;;;;9.18;2.42;;;;;;;14.28;100.00;100426.72;5095694;28;20083;-84
2022/06/29 07:18:57;;;;;;;11.90;3.88;;;;;;;14.52;100.00;100435.84;5103020;28;20127;-84
2022/06/29 07:21:24;;;;;;;9.13;2.53;;;;;;;14.35;100.00;100438.59;5092548;28;20053;-85
2022/06/29 07:23:50;;;;;;;14.88;3.25;;;;;;;14.37;100.00;100403.31;5115183;28;20115;-85
2022/06/29 07:26:17;;;;;;;14.05;2.90;;;;;;;14.30;100.00;100433.59;5115338;28;20062;-84
2022/06/29 07:28:44;;;;;;;16.42;3.80;;;;;;;14.26;100.00;100410.19;5096376;28;20049;-84
2022/06/29 07:31:10;;;;;;;13.68;3.17;;;;;;;14.53;100.00;100441.94;5113185;28;20452;-85
2022/06/29 07:33:37;;;;;;;11.20;3.22;;;;;;;14.47;100.00;100437.88;5115005;28;20052;-85
2022/06/29 07:36:05;;;;;;;10.90;3.30;;;;;;;14.56;100.00;100425.97;5097376;28;20373;-85
2022/06/29 07:38:31;;;;;;;13.57;3.20;;;;;;;14.43;100.00;100391.59;5097401;28;20058;-85
2022/06/29 07:40:59;;;;;;;13.10;3.28;;;;;;;14.35;100.00;100414.91;5095500;28;20055;-85
2022/06/29 07:43:26;;;;;;;10.43;2.58;;;;;;;14.23;100.00;100395.38;5096754;28;20124;-85
2022/06/29 07:45:56;;;;;;;16.02;3.95;;;;;;;14.56;100.00;100445.25;5097331;28;20047;-85
2022/06/29 07:48:24;;;;;;;12.82;3.08;;;;;;;14.58;100.00;100446.03;5097082;28;20044;-85
2022/06/29 07:50:51;;;;;;;11.68;2.70;;;;;;;14.80;100.00;100435.06;5096407;28;20096;-84
2022/06/29 07:53:19;;;;;;;13.68;3.08;;;;;;;14.59;100.00;100420.56;5096646;28;20137;-85
2022/06/29 07:55:46;;;;;;;14.85;3.15;;;;;;;14.53;100.00;100450.69;5096455;28;20047;-85
2022/06/29 07:58:17;;;;;;;20.35;4.25;;;;;;;14.36;100.00;100459.59;5082794;28;20050;-85
2022/06/29 08:00:44;;;;;;;12.15;3.13;;;;;;;14.35;100.00;100449.13;5096212;28;20047;-85
2022/06/29 08:03:12;;;;;;;14.48;4.00;;;;;;;14.35;100.00;100421.00;5095823;28;20051;-84
2022/06/29 08:05:46;;;;;;;16.90;4.35;;;;;;;14.11;100.00;100381.16;5092817;28;20052;-84
2022/06/29 08:08:13;;;;;;;11.73;4.18;;;;;;;14.11;100.00;100380.31;5087918;28;20050;-85
2022/06/29 08:10:40;;;;;;;15.77;5.35;;;;;;;14.34;100.00;100397.38;5113164;28;20134;-85
2022/06/29 08:13:07;;;;;;;14.63;3.85;;;;;;;14.66;100.00;100421.00;5112334;28;20051;-84
2022/06/29 08:15:34;;;;;;;11.98;4.30;;;;;;;14.67;100.00;100415.66;5084544;28;20054;-85
2022/06/29 08:18:01;;;;;;;12.38;4.15;;;;;;;14.41;100.00;100427.69;5112183;28;20130;-84
2022/06/29 08:20:28;;;;;;;14.95;4.80;;;;;;;14.72;100.00;100432.03;5095477;28;20058;-84
2022/06/29 08:22:55;;;;;;;20.67;6.93;;;;;;;14.65;100.00;100417.53;5094543;28;20477;-84
2022/06/29 08:25:22;;;;;;;16.30;5.88;;;;;;;14.64;100.00;100429.00;5112818;28;20142;-84
2022/06/29 08:27:52;;;;;;;11.55;4.20;;;;;;;14.70;100.00;100425.19;5094852;28;20071;-85
2022/06/29 08:30:19;;;;;;;13.95;4.20;;;;;;;14.79;100.00;100422.81;5083019;28;20135;-84
2022/06/29 08:32:46;;;;;;;13.52;3.75;;;;;;;14.68;100.00;100422.63;5095059;28;20055;-85
2022/06/29 08:35:15;;;;;;;14.15;3.63;;;;;;;14.80;100.00;100403.44;5099182;28;20046;-85
2022/06/29 08:37:44;;;;;;;8.98;2.70;;;;;;;14.73;100.00;100395.97;5113566;28;20043;-84
2022/06/29 08:40:13;;;;;;;14.85;3.42;;;;;;;14.47;100.00;100414.19;5090448;28;20039;-84
2022/06/29 08:42:41;;;;;;;13.25;3.10;;;;;;;14.72;100.00;100433.84;5094480;28;20134;-85
2022/06/29 08:45:10;;;;;;;11.25;2.90;;;;;;;14.72;100.00;100439.94;5113772;28;20054;-85
2022/06/29 08:47:37;;;;;;;15.23;3.25;;;;;;;14.67;100.00;100436.72;5113839;28;20071;-85
2022/06/29 08:50:06;;;;;;;11.73;3.65;;;;;;;14.60;100.00;100436.25;5095928;28;20059;-85
2022/06/29 08:52:35;;;;;;;10.55;3.13;;;;;;;14.82;100.00;100445.53;5094755;28;20043;-86
2022/06/29 08:55:04;;;;;;;12.75;4.25;;;;;;;14.83;100.00;100439.31;5099304;28;20056;-86
2022/06/29 08:57:34;;;;;;;17.52;4.85;;;;;;;14.55;100.00;100446.16;5094952;28;20067;-86
2022/06/29 09:00:02;;;;;;;13.98;4.40;;;;;;;14.60;100.00;100459.13;5082096;28;20130;-86
2022/06/29 09:02:29;;;;;;;13.05;3.45;;;;;;;14.71;100.00;100458.47;5094598;28;20051;-86
2022/06/29 09:04:57;;;;;;;20.85;4.68;;;;;;;14.81;100.00;100441.19;5095551;28;20417;-86
2022/06/29 09:07:25;;;;;;;17.52;6.05;;;;;;;14.39;100.00;100450.66;5095153;28;20043;-86
2022/06/29 09:10:09;;;;;;;14.93;4.63;;;;;;;14.43;100.00;100466.19;5106592;28;20076;-86
2022/06/29 09:12:36;;;;;;;17.17;5.45;;;;;;;14.50;100.00;100450.00;5088709;28;20043;-86
2022/06/29 09:15:06;;;;;;;23.50;6.07;;;;;;;14.19;100.00;100449.16;5114076;28;20047;-87
2022/06/29 09:17:35;;;;;;;16.77;4.80;;;;;;;14.28;100.00;100437.25;5113858;28;20516;-86
2022/06/29 09:20:03;;;;;;;10.93;3.65;;;;;;;14.79;100.00;100440.44;5096046;28;20048;-86
2022/06/29 09:22:55;;;;;;;17.40;5.03;;;;;;;14.79;100.00;100458.88;5097572;28;20051;-86
2022/06/29 09:25:26;;;;;;;16.73;4.20;;;;;;;14.56;100.00;100399.63;5096213;28;20042;-87
2022/06/29 09:27:56;;;;;;;14.77;3.90;;;;;;;15.05;100.00;100451.19;5098060;28;20131;-86
2022/06/29 09:30:30;;;;;;;24.13;5.88;;;;;;;14.90;100.00;100455.59;5100858;28;20069;-87
2022/06/29 09:33:00;;;;;;;13.82;3.83;;;;;;;14.99;100.00;100432.16;5094863;28;20044;-86
2022/06/29 09:35:28;;;;;;;14.35;3.60;;;;;;;14.86;100.00;100430.38;5105937;28;20486;-87
2022/06/29 09:38:18;;;;;;;16.55;3.92;;;;;;;15.11;100.00;100459.56;5106619;28;20044;-87
2022/06/29 09:40:57;;;;;;;18.98;4.32;;;;;;;15.20;100.00;100460.81;5084173;28;20050;-87
2022/06/29 09:43:25;;;;;;;9.63;3.47;;;;;;;14.98;100.00;100458.63;5095909;28;20056;-87
2022/06/29 09:45:54;;;;;;;17.13;4.00;;;;;;;15.08;100.00;100449.19;5095301;28;20051;-86
2022/06/29 09:48:23;;;;;;;11.45;2.72;;;;;;;15.07;100.00;100418.53;5081353;28;20047;-87
2022/06/29 09:50:52;;;;;;;14.63;3.67;;;;;;;14.73;100.00;100419.69;5094750;28;20560;-87
2022/06/29 09:53:26;;;;;;;20.75;4.13;;;;;;;15.17;100.00;100469.75;5094494;28;20048;-87
2022/06/29 09:55:56;;;;;;;23.52;5.13;;;;;;;14.47;100.00;100443.16;5112866;28;20050;-87
2022/06/29 09:58:35;;;;;;;16.98;4.82;;;;;;;14.66;100.00;100482.50;5094963;28;20123;-87
2022/06/29 10:03:54;;;;;;;21.27;5.13;;;;;;;14.47;100.00;100460.75;5113384;28;20082;-87
2022/06/29 10:06:22;;;;;;;17.65;4.75;;;;;;;14.79;100.00;100486.06;5096280;28;20043;-88
2022/06/29 10:08:50;;;;;;;21.55;5.43;;;;;;;14.62;100.00;100444.06;5096647;28;20048;-88
2022/06/29 10:14:44;;;;;;;30.35;7.07;;;;;;;14.83;100.00;100476.19;5092231;28;20551;-88
2022/06/29 10:17:43;;;;;;;19.45;4.57;;;;;;;15.18;100.00;100460.06;5113303;28;20461;-88
2022/06/29 10:20:26;;;;;;;21.35;7.57;;;;;;;14.87;100.00;100474.22;5088223;28;20117;-88
2022/06/29 10:22:53;;;;;;;20.63;6.03;;;;;;;14.90;100.00;100435.34;5112383;28;20472;-88
2022/06/29 10:25:27;;;;;;;25.02;6.20;;;;;;;15.28;100.00;100432.19;5095468;28;20122;-87
2022/06/29 10:28:18;;;;;;;20.27;6.85;;;;;;;15.61;100.00;100464.44;5095257;28;20047;-88
2022/06/29 10:30:45;;;;;;;22.55;7.05;;;;;;;15.99;100.00;100463.81;5095272;28;20043;-88
2022/06/29 10:33:35;;;;;;;17.08;4.03;;;;;;;15.90;100.00;100465.25;5112207;28;20101;-88
2022/06/29 10:36:08;;;;;;;16.73;4.38;;;;;;;15.52;100.00;100418.38;5101190;28;20117;-88
2022/06/29 10:39:00;;;;;;;22.70;5.50;;;;;;;15.89;100.00;100450.38;5094418;28;20079;-88
2022/06/29 10:45:16;;;;;;;24.55;6.15;;;;;;;15.17;100.00;100463.63;5113849;28;20432;-88
2022/06/29 10:47:52;;;;;;;20.65;5.60;;;;;;;15.23;100.00;100459.75;5020453;28;20128;-88
2022/06/29 10:50:20;;;;;;;16.50;5.15;;;;;;;15.19;100.00;100478.41;5035392;28;20087;-88
2022/06/29 10:52:48;;;;;;;21.23;5.60;;;;;;;15.17;100.00;100471.53;5076513;28;20044;-88
2022/06/29 10:55:16;;;;;;;17.00;4.95;;;;;;;15.26;100.00;100464.84;5095486;28;20413;-88
2022/06/29 10:57:45;;;;;;;18.38;4.75;;;;;;;15.22;100.00;100432.53;5093360;28;20054;-89
2022/06/29 11:00:18;;;;;;;16.05;4.93;;;;;;;15.26;100.00;100438.47;5080120;28;20087;-88
2022/06/29 11:02:45;;;;;;;24.23;6.28;;;;;;;15.24;100.00;100417.47;5090450;28;20409;-88
2022/06/29 11:05:12;;;;;;;18.85;5.13;;;;;;;14.86;100.00;100430.38;5093795;28;20044;-88
2022/06/29 11:13:27;;;;;;;18.77;4.25;;;;;;;15.19;100.00;100467.00;5116216;28;20142;-88
2022/06/29 11:15:56;;;;;;;19.58;5.43;;;;;;;15.10;100.00;100420.97;5097573;28;20048;-89
2022/06/29 11:18:27;;;;;;;17.15;5.18;;;;;;;15.17;100.00;100460.97;5099231;28;20401;-87
2022/06/29 11:21:02;;;;;;;16.63;4.95;;;;;;;14.78;100.00;100429.06;5098179;28;20079;-87
2022/06/29 11:23:31;;;;;;;21.88;5.60;;;;;;;14.81;100.00;100430.66;5087109;28;20477;-88
2022/06/29 11:25:59;;;;;;;13.65;3.55;;;;;;;15.42;100.00;100448.91;5098988;28;20408;-88
2022/06/29 11:28:29;;;;;;;17.60;4.18;;;;;;;15.51;100.00;100432.50;5100622;28;20043;-87
2022/06/29 11:31:07;;;;;;;16.35;5.50;;;;;;;15.78;100.00;100434.38;5119769;28;20079;-88
2022/06/29 11:33:39;;;;;;;22.48;6.15;;;;;;;15.91;100.00;100445.84;5083216;28;20134;-88
2022/06/29 11:36:14;;;;;;;15.98;4.82;;;;;;;15.86;100.00;100426.81;5098365;28;20401;-88